Cove Gap, West Virginia
Current Conditions -  °F | °C
As of 12:51 PM on Saturday 20 Dec 2014 (Local Time) from KHTS Reporting Station
Broken Clouds Broken Clouds  
Wind Chill: 34°   Ceiling: 4000
Heat Index: 34°   Visibility: 10mi
Dew Point: 25°   Wind: 0mph
Humidity: 70%   Direction: NA
Pressure: 30.24"   Gusts: NA
Location:  38.0696°N, 82.2646°W
Report Text: KHTS 201751Z 00000KT 10SM BKN040 BKN080 01/M04 A3024 RMK AO2 SLP247 T00111039 10022 21017 58012
Loading
Personal Weather Stations






























Interactive Weather Map New forecast layout! Learn more

10-Day Weather Forecast

Advertisements
Track Severe Weather on mobile